createdAt,value
2019-03-12T07:07:22.263Z,9.40
2019-03-12T07:12:36.795Z,11.90
2019-03-12T07:17:50.434Z,15.80
2019-03-12T07:20:37.172Z,16.50
2019-03-12T07:26:02.379Z,16.20
2019-03-12T07:28:50.008Z,17.00
2019-03-12T07:31:16.245Z,17.50
2019-03-12T07:33:52.211Z,17.60
2019-03-12T07:36:37.492Z,17.60
2019-03-12T07:39:14.849Z,17.70
2019-03-12T07:41:56.999Z,18.50
2019-03-12T07:44:27.260Z,18.50
2019-03-12T07:47:00.480Z,18.70
2019-03-12T07:49:36.721Z,18.30
2019-03-12T07:52:09.398Z,18.60
2019-03-12T07:54:48.987Z,18.90
2019-03-12T07:57:19.134Z,19.00
2019-03-12T07:59:55.443Z,19.60
2019-03-12T08:02:42.167Z,20.10
2019-03-12T08:05:30.542Z,21.30
2019-03-12T08:08:03.708Z,21.70
2019-03-12T08:10:36.487Z,21.50
2019-03-12T08:13:18.705Z,21.50
2019-03-12T08:16:06.075Z,22.00
2019-03-12T08:18:39.055Z,21.50
2019-03-12T08:21:22.221Z,21.10
2019-03-12T08:24:03.124Z,21.00
2019-03-12T08:26:42.249Z,21.30
2019-03-12T08:29:29.133Z,21.40
2019-03-12T08:32:02.482Z,21.30
2019-03-12T08:34:32.714Z,21.40
2019-03-12T08:37:02.934Z,21.70
2019-03-12T08:39:36.613Z,21.60
2019-03-12T08:42:15.658Z,19.30
2019-03-12T08:47:28.041Z,17.50
2019-03-12T08:55:04.421Z,17.30
2019-03-12T08:57:46.635Z,17.40
2019-03-12T09:00:19.555Z,17.80
2019-03-12T09:05:39.125Z,18.10
2019-03-12T09:11:08.445Z,19.60
2019-03-12T09:13:52.471Z,20.80
2019-03-12T09:16:28.730Z,19.90
2019-03-12T09:19:01.625Z,20.20
2019-03-12T09:24:16.708Z,20.00
2019-03-12T09:34:32.673Z,18.00
2019-03-12T09:37:08.831Z,17.70
2019-03-12T09:39:51.009Z,18.00
2019-03-12T09:45:19.193Z,18.10
2019-03-12T10:37:32.599Z,20.40
2019-03-12T10:45:18.247Z,20.00
2019-03-12T10:50:26.238Z,20.80
2019-03-12T10:57:51.591Z,21.20
2019-03-12T11:00:20.158Z,21.20
2019-03-12T11:12:44.005Z,22.20
2019-03-12T11:17:49.457Z,22.50
2019-03-12T11:20:22.571Z,22.60
2019-03-12T11:25:27.060Z,22.40
2019-03-12T11:27:49.725Z,22.00
2019-03-12T11:30:19.251Z,22.30
2019-03-12T11:35:39.437Z,22.10
2019-03-12T11:38:05.833Z,22.40
2019-03-12T11:40:34.490Z,23.20
2019-03-12T11:45:36.878Z,23.40
2019-03-12T11:50:29.996Z,22.70
2019-03-12T11:53:00.050Z,22.40
2019-03-12T12:00:33.160Z,20.70
2019-03-12T12:12:55.416Z,23.40
2019-03-12T12:15:24.591Z,21.90
2019-03-12T12:17:55.753Z,20.80
2019-03-12T12:20:29.518Z,20.60
2019-03-12T12:22:54.674Z,20.60
2019-03-12T12:27:51.488Z,18.80
2019-03-12T12:32:50.039Z,18.30
2019-03-12T12:35:18.602Z,18.00
2019-03-12T12:37:47.169Z,17.70
2019-03-12T12:40:20.808Z,18.00
2019-03-12T12:42:49.464Z,17.90
2019-03-12T12:45:26.939Z,18.60
2019-03-12T12:47:55.555Z,19.20
2019-03-12T12:50:24.214Z,20.00
2019-03-12T12:52:52.890Z,20.10
2019-03-12T12:55:21.391Z,19.60
2019-03-12T12:57:50.039Z,19.40
2019-03-12T13:00:23.838Z,18.70
2019-03-12T13:02:52.484Z,19.00
2019-03-12T13:05:20.949Z,18.90
2019-03-12T13:07:49.480Z,18.90
2019-03-12T13:10:31.769Z,19.10
2019-03-12T13:13:00.417Z,19.50
2019-03-12T13:15:29.039Z,20.20
2019-03-12T13:17:57.538Z,19.80
2019-03-12T13:20:26.423Z,19.40
2019-03-12T13:22:55.055Z,19.70
2019-03-12T13:25:23.632Z,19.80
2019-03-12T13:27:52.205Z,19.50
2019-03-12T13:30:21.613Z,19.10
2019-03-12T13:37:47.503Z,19.40
2019-03-12T13:40:21.357Z,21.00
2019-03-12T13:47:48.216Z,21.50
2019-03-12T13:50:16.761Z,21.30
2019-03-12T13:52:45.443Z,21.20
2019-03-12T13:55:15.177Z,21.40
2019-03-12T13:57:43.872Z,21.80
2019-03-12T14:00:23.769Z,21.20
2019-03-12T14:05:20.732Z,21.80
2019-03-12T14:07:49.737Z,22.10
2019-03-12T14:15:30.343Z,22.50
2019-03-12T14:17:59.361Z,21.60
2019-03-12T14:20:50.892Z,20.80
2019-03-12T14:23:28.342Z,20.10
2019-03-12T14:28:25.569Z,20.00
2019-03-12T14:33:22.368Z,20.20
2019-03-12T14:35:52.298Z,21.40
2019-03-12T14:43:17.893Z,23.50
2019-03-12T14:51:09.314Z,23.70
2019-03-12T14:56:06.959Z,22.60
2019-03-12T15:01:03.913Z,24.20
2019-03-12T15:03:32.919Z,23.10
2019-03-12T15:06:01.580Z,22.50
2019-03-12T15:20:53.926Z,22.50
2019-03-12T15:23:45.715Z,23.40
2019-03-12T15:26:14.942Z,24.60
2019-03-12T15:28:43.610Z,23.80
2019-03-12T15:31:13.109Z,23.30
2019-03-12T15:33:41.732Z,22.10
2019-03-12T15:38:39.131Z,23.30
2019-03-12T15:41:07.789Z,22.80
2019-03-12T15:43:37.593Z,23.40
2019-03-12T15:46:06.200Z,22.90
2019-03-12T15:48:34.767Z,23.40
2019-03-12T15:51:03.268Z,23.40
2019-03-12T15:53:31.866Z,23.50
2019-03-12T15:56:00.519Z,24.60
2019-03-12T16:05:54.404Z,25.70
2019-03-12T16:08:23.025Z,25.70
2019-03-12T16:10:57.845Z,25.70
2019-03-12T16:18:18.509Z,25.20
2019-03-12T16:20:47.073Z,25.10
2019-03-12T16:23:15.679Z,25.10
2019-03-12T16:25:45.679Z,24.70
2019-03-12T16:28:14.321Z,24.30
2019-03-12T16:30:42.986Z,24.40
2019-03-12T16:33:11.631Z,24.20
2019-03-12T16:38:08.433Z,24.00
2019-03-12T16:45:33.568Z,24.40
2019-03-12T16:48:02.141Z,24.50
2019-03-12T16:50:32.357Z,24.60
2019-03-12T16:55:29.303Z,24.60
2019-03-12T16:57:57.938Z,24.60
2019-03-12T17:00:26.610Z,24.70
2019-03-12T17:02:55.246Z,24.30
2019-03-12T17:05:28.099Z,24.50
2019-03-12T17:10:24.955Z,24.30
2019-03-12T17:12:53.604Z,23.80
2019-03-12T17:15:27.012Z,24.00
2019-03-12T17:17:55.512Z,23.90
2019-03-12T17:20:24.099Z,24.00
2019-03-12T17:22:52.685Z,24.10
2019-03-12T17:25:22.213Z,24.10
2019-03-12T17:27:51.872Z,24.30
2019-03-12T17:30:24.589Z,24.20
2019-03-12T17:32:53.174Z,24.20
2019-03-12T17:35:27.544Z,23.70
2019-03-12T17:37:56.081Z,23.80
2019-03-12T17:40:24.727Z,23.70
2019-03-12T17:42:53.371Z,24.30
2019-03-12T17:45:21.973Z,23.70
2019-03-12T17:47:50.921Z,22.50
2019-03-12T17:52:47.937Z,21.90
2019-03-12T17:55:16.582Z,22.30
2019-03-12T17:57:45.605Z,21.20
2019-03-12T18:00:19.948Z,21.80
2019-03-12T18:02:50.653Z,22.20
2019-03-12T18:15:15.100Z,22.70
2019-03-12T18:17:43.739Z,22.90
2019-03-12T18:20:19.897Z,22.50
2019-03-12T18:22:48.541Z,22.10
2019-03-12T18:30:19.171Z,23.00
2019-03-12T18:35:16.235Z,23.50
2019-03-12T18:37:46.387Z,23.10
2019-03-12T18:40:17.687Z,23.10
2019-03-12T18:42:46.405Z,22.90
2019-03-12T18:45:17.450Z,22.70
2019-03-12T18:50:17.790Z,21.80
2019-03-12T18:52:46.413Z,22.20
2019-03-12T18:55:33.807Z,22.50
2019-03-12T18:58:04.562Z,22.60
2019-03-12T19:03:02.017Z,23.40
2019-03-12T19:10:27.369Z,23.30
2019-03-12T19:17:53.155Z,22.20
2019-03-12T19:20:33.465Z,21.70
2019-03-12T19:23:02.159Z,21.40
2019-03-12T19:25:38.304Z,21.10
2019-03-12T19:30:35.063Z,20.80
2019-03-12T19:33:05.579Z,21.60
2019-03-12T19:35:36.781Z,21.30
2019-03-12T19:40:43.047Z,21.30
2019-03-12T19:43:11.395Z,21.20
2019-03-12T19:48:08.379Z,21.40
2019-03-12T19:50:36.881Z,21.00
2019-03-12T19:55:48.889Z,21.20
2019-03-12T19:58:17.463Z,20.70
2019-03-12T20:00:46.099Z,21.10
2019-03-12T20:03:16.404Z,21.30
2019-03-12T20:05:45.058Z,21.70
2019-03-12T20:11:09.127Z,22.10
2019-03-12T20:14:04.862Z,22.50
2019-03-12T20:17:08.167Z,22.70
2019-03-12T20:19:48.005Z,22.40
2019-03-12T20:22:39.181Z,22.10
2019-03-12T20:30:52.963Z,21.80
2019-03-12T20:41:44.322Z,21.80
2019-03-12T20:44:39.074Z,22.20
2019-03-12T21:01:40.767Z,22.50
2019-03-12T21:04:18.018Z,22.80
2019-03-12T21:07:10.009Z,23.20
2019-03-12T21:09:59.614Z,21.10
2019-03-12T21:18:18.502Z,22.40
2019-03-12T21:23:47.394Z,22.50
2019-03-12T21:26:47.928Z,21.40
2019-03-12T21:29:45.528Z,22.50
2019-03-12T21:32:15.282Z,22.00
2019-03-12T21:42:11.867Z,22.80
2019-03-12T21:47:10.004Z,22.90
2019-03-12T21:49:39.168Z,22.70
2019-03-12T21:52:07.836Z,21.90
2019-03-12T21:54:36.482Z,21.80
2019-03-12T21:57:05.120Z,22.10
2019-03-12T22:02:02.138Z,20.30
2019-03-12T22:04:30.730Z,21.00
2019-03-12T22:06:59.353Z,20.10
2019-03-12T22:09:28.265Z,20.20
2019-03-12T22:11:56.918Z,19.40
2019-03-12T22:14:25.603Z,18.80
2019-03-12T22:22:11.471Z,20.70
2019-03-12T22:27:08.462Z,21.20
2019-03-12T22:29:37.003Z,21.50
2019-03-12T22:32:05.649Z,21.90
2019-03-12T22:37:06.890Z,21.50
2019-03-12T22:39:40.250Z,20.80
2019-03-12T22:42:10.596Z,21.10
2019-03-12T22:44:39.231Z,21.60
2019-03-12T22:47:07.891Z,21.40
2019-03-12T22:49:36.500Z,20.00
2019-03-12T22:52:05.748Z,20.90
2019-03-12T22:54:34.400Z,20.60
2019-03-12T22:59:31.201Z,21.30
2019-03-12T23:01:59.765Z,21.20
2019-03-12T23:10:58.650Z,20.90
2019-03-12T23:13:27.201Z,21.50
2019-03-12T23:15:56.212Z,20.20
2019-03-12T23:18:24.884Z,19.10
2019-03-12T23:20:55.085Z,20.20
2019-03-12T23:23:23.714Z,19.80
2019-03-12T23:25:52.377Z,19.90
2019-03-12T23:30:49.390Z,20.70
2019-03-12T23:33:18.132Z,20.30
2019-03-12T23:38:15.391Z,21.20
2019-03-12T23:40:44.051Z,20.80
2019-03-12T23:43:12.678Z,21.70
2019-03-12T23:45:41.303Z,21.30
2019-03-12T23:48:09.893Z,21.30
2019-03-12T23:50:38.517Z,19.90
2019-03-12T23:55:35.625Z,20.70
2019-03-12T23:58:04.244Z,21.20
